sensor_id;sensor_type;location;lat;lon;timestamp;P1;durP1;ratioP1;P2;durP2;ratioP2
16699;SDS011;8466;52.286;21.124;2023-02-24T00:02:17;63.20;;;57.53;;
16699;SDS011;8466;52.286;21.124;2023-02-24T00:04:47;60.30;;;54.70;;
16699;SDS011;8466;52.286;21.124;2023-02-24T00:07:19;55.43;;;50.10;;
16699;SDS011;8466;52.286;21.124;2023-02-24T00:09:48;59.20;;;53.60;;
16699;SDS011;8466;52.286;21.124;2023-02-24T00:12:17;58.93;;;53.50;;
16699;SDS011;8466;52.286;21.124;2023-02-24T00:14:46;63.13;;;57.47;;
16699;SDS011;8466;52.286;21.124;2023-02-24T00:17:14;55.43;;;50.33;;
16699;SDS011;8466;52.286;21.124;2023-02-24T00:19:43;50.28;;;45.67;;
16699;SDS011;8466;52.286;21.124;2023-02-24T00:22:12;39.20;;;34.77;;
16699;SDS011;8466;52.286;21.124;2023-02-24T00:24:48;39.47;;;33.30;;
16699;SDS011;8466;52.286;21.124;2023-02-24T00:27:16;38.50;;;34.50;;
16699;SDS011;8466;52.286;21.124;2023-02-24T00:29:45;44.70;;;40.00;;
16699;SDS011;8466;52.286;21.124;2023-02-24T00:32:13;49.93;;;44.93;;
16699;SDS011;8466;52.286;21.124;2023-02-24T00:34:42;52.70;;;47.57;;
16699;SDS011;8466;52.286;21.124;2023-02-24T00:37:11;63.67;;;57.60;;
16699;SDS011;8466;52.286;21.124;2023-02-24T00:39:41;61.63;;;55.90;;
16699;SDS011;8466;52.286;21.124;2023-02-24T00:42:11;56.17;;;50.73;;
16699;SDS011;8466;52.286;21.124;2023-02-24T00:44:40;61.88;;;56.63;;
16699;SDS011;8466;52.286;21.124;2023-02-24T00:47:12;48.97;;;44.47;;
16699;SDS011;8466;52.286;21.124;2023-02-24T00:49:43;42.33;;;36.03;;
16699;SDS011;8466;52.286;21.124;2023-02-24T00:52:14;40.30;;;34.47;;
16699;SDS011;8466;52.286;21.124;2023-02-24T00:54:45;40.70;;;35.87;;
16699;SDS011;8466;52.286;21.124;2023-02-24T00:57:16;49.97;;;44.97;;
16699;SDS011;8466;52.286;21.124;2023-02-24T00:59:47;42.20;;;35.60;;
16699;SDS011;8466;52.286;21.124;2023-02-24T01:02:17;41.73;;;32.70;;
16699;SDS011;8466;52.286;21.124;2023-02-24T01:04:46;41.73;;;35.23;;
16699;SDS011;8466;52.286;21.124;2023-02-24T01:07:16;39.93;;;34.07;;
16699;SDS011;8466;52.286;21.124;2023-02-24T01:09:45;42.00;;;35.70;;
16699;SDS011;8466;52.286;21.124;2023-02-24T01:12:18;49.50;;;44.20;;
16699;SDS011;8466;52.286;21.124;2023-02-24T01:15:06;50.83;;;45.80;;
16699;SDS011;8466;52.286;21.124;2023-02-24T01:17:36;44.60;;;39.80;;
16699;SDS011;8466;52.286;21.124;2023-02-24T01:20:05;43.33;;;38.40;;
16699;SDS011;8466;52.286;21.124;2023-02-24T01:22:42;50.10;;;44.83;;
16699;SDS011;8466;52.286;21.124;2023-02-24T01:25:12;50.23;;;45.07;;
16699;SDS011;8466;52.286;21.124;2023-02-24T01:27:42;50.90;;;45.90;;
16699;SDS011;8466;52.286;21.124;2023-02-24T01:30:11;48.13;;;43.10;;
16699;SDS011;8466;52.286;21.124;2023-02-24T01:32:42;51.77;;;46.43;;
16699;SDS011;8466;52.286;21.124;2023-02-24T01:35:12;49.67;;;44.50;;
16699;SDS011;8466;52.286;21.124;2023-02-24T01:37:41;47.13;;;40.83;;
16699;SDS011;8466;52.286;21.124;2023-02-24T01:40:11;46.87;;;41.60;;
16699;SDS011;8466;52.286;21.124;2023-02-24T01:42:48;45.77;;;40.87;;
16699;SDS011;8466;52.286;21.124;2023-02-24T01:45:18;46.00;;;39.20;;
16699;SDS011;8466;52.286;21.124;2023-02-24T01:47:51;48.57;;;43.37;;
16699;SDS011;8466;52.286;21.124;2023-02-24T01:50:23;49.77;;;44.40;;
16699;SDS011;8466;52.286;21.124;2023-02-24T01:52:54;43.93;;;37.57;;
16699;SDS011;8466;52.286;21.124;2023-02-24T01:55:28;47.33;;;42.23;;
16699;SDS011;8466;52.286;21.124;2023-02-24T01:58:02;47.07;;;42.23;;
16699;SDS011;8466;52.286;21.124;2023-02-24T02:00:37;48.37;;;43.17;;
16699;SDS011;8466;52.286;21.124;2023-02-24T02:03:19;44.70;;;37.20;;
16699;SDS011;8466;52.286;21.124;2023-02-24T02:05:57;51.90;;;46.43;;
16699;SDS011;8466;52.286;21.124;2023-02-24T02:08:52;44.77;;;39.87;;
16699;SDS011;8466;52.286;21.124;2023-02-24T02:11:22;57.60;;;52.03;;
16699;SDS011;8466;52.286;21.124;2023-02-24T02:13:53;50.67;;;45.30;;
16699;SDS011;8466;52.286;21.124;2023-02-24T02:16:35;44.97;;;39.40;;
16699;SDS011;8466;52.286;21.124;2023-02-24T02:22:31;62.10;;;55.80;;
16699;SDS011;8466;52.286;21.124;2023-02-24T02:25:24;61.13;;;55.30;;
16699;SDS011;8466;52.286;21.124;2023-02-24T02:28:14;57.30;;;51.37;;
16699;SDS011;8466;52.286;21.124;2023-02-24T02:34:06;56.37;;;50.83;;
16699;SDS011;8466;52.286;21.124;2023-02-24T02:36:41;51.23;;;45.93;;
16699;SDS011;8466;52.286;21.124;2023-02-24T02:39:32;46.57;;;40.57;;
16699;SDS011;8466;52.286;21.124;2023-02-24T02:42:10;45.53;;;40.83;;
16699;SDS011;8466;52.286;21.124;2023-02-24T02:44:46;44.47;;;36.30;;
16699;SDS011;8466;52.286;21.124;2023-02-24T02:47:25;42.57;;;36.17;;
16699;SDS011;8466;52.286;21.124;2023-02-24T02:50:00;45.85;;;40.47;;
16699;SDS011;8466;52.286;21.124;2023-02-24T02:52:37;41.00;;;32.93;;
16699;SDS011;8466;52.286;21.124;2023-02-24T02:55:08;44.87;;;39.33;;
16699;SDS011;8466;52.286;21.124;2023-02-24T02:57:42;44.40;;;34.47;;
16699;SDS011;8466;52.286;21.124;2023-02-24T03:00:15;43.00;;;36.30;;
16699;SDS011;8466;52.286;21.124;2023-02-24T03:02:49;47.80;;;39.37;;
16699;SDS011;8466;52.286;21.124;2023-02-24T03:05:23;47.73;;;42.70;;
16699;SDS011;8466;52.286;21.124;2023-02-24T03:07:57;46.43;;;38.13;;
16699;SDS011;8466;52.286;21.124;2023-02-24T03:10:30;50.70;;;45.03;;
16699;SDS011;8466;52.286;21.124;2023-02-24T03:13:00;46.43;;;33.87;;
16699;SDS011;8466;52.286;21.124;2023-02-24T03:15:32;43.17;;;34.87;;
16699;SDS011;8466;52.286;21.124;2023-02-24T03:18:08;45.93;;;38.10;;
16699;SDS011;8466;52.286;21.124;2023-02-24T03:20:46;45.63;;;37.07;;
16699;SDS011;8466;52.286;21.124;2023-02-24T03:23:19;46.47;;;41.17;;
16699;SDS011;8466;52.286;21.124;2023-02-24T03:25:53;53.10;;;47.40;;
16699;SDS011;8466;52.286;21.124;2023-02-24T03:28:26;43.87;;;36.33;;
16699;SDS011;8466;52.286;21.124;2023-02-24T03:31:01;46.47;;;41.37;;
16699;SDS011;8466;52.286;21.124;2023-02-24T03:33:37;44.23;;;39.40;;
16699;SDS011;8466;52.286;21.124;2023-02-24T03:36:11;46.03;;;37.23;;
16699;SDS011;8466;52.286;21.124;2023-02-24T03:38:40;46.17;;;35.27;;
16699;SDS011;8466;52.286;21.124;2023-02-24T03:41:14;47.23;;;41.97;;
16699;SDS011;8466;52.286;21.124;2023-02-24T03:43:45;45.50;;;38.00;;
16699;SDS011;8466;52.286;21.124;2023-02-24T03:46:16;46.80;;;37.53;;
16699;SDS011;8466;52.286;21.124;2023-02-24T03:48:45;42.90;;;33.50;;
16699;SDS011;8466;52.286;21.124;2023-02-24T03:51:19;45.50;;;38.20;;
16699;SDS011;8466;52.286;21.124;2023-02-24T03:53:55;43.53;;;35.90;;
16699;SDS011;8466;52.286;21.124;2023-02-24T03:56:34;49.97;;;39.67;;
16699;SDS011;8466;52.286;21.124;2023-02-24T03:59:13;50.90;;;39.90;;
16699;SDS011;8466;52.286;21.124;2023-02-24T04:01:55;45.90;;;40.23;;
16699;SDS011;8466;52.286;21.124;2023-02-24T04:04:30;45.97;;;37.47;;
16699;SDS011;8466;52.286;21.124;2023-02-24T04:07:07;48.20;;;39.73;;
16699;SDS011;8466;52.286;21.124;2023-02-24T04:09:43;52.50;;;41.43;;
16699;SDS011;8466;52.286;21.124;2023-02-24T04:12:18;49.70;;;39.43;;
16699;SDS011;8466;52.286;21.124;2023-02-24T04:14:54;47.03;;;37.13;;
16699;SDS011;8466;52.286;21.124;2023-02-24T04:17:25;44.87;;;38.20;;
16699;SDS011;8466;52.286;21.124;2023-02-24T04:20:00;46.90;;;36.60;;
16699;SDS011;8466;52.286;21.124;2023-02-24T04:22:39;47.83;;;38.30;;
16699;SDS011;8466;52.286;21.124;2023-02-24T04:25:10;45.27;;;37.63;;
16699;SDS011;8466;52.286;21.124;2023-02-24T04:27:41;47.70;;;38.97;;
16699;SDS011;8466;52.286;21.124;2023-02-24T04:30:11;46.47;;;36.87;;
16699;SDS011;8466;52.286;21.124;2023-02-24T04:32:41;47.80;;;36.97;;
16699;SDS011;8466;52.286;21.124;2023-02-24T04:35:12;48.93;;;40.13;;
16699;SDS011;8466;52.286;21.124;2023-02-24T04:37:44;49.27;;;38.57;;
16699;SDS011;8466;52.286;21.124;2023-02-24T04:40:13;49.27;;;41.97;;
16699;SDS011;8466;52.286;21.124;2023-02-24T04:42:44;47.37;;;39.63;;
16699;SDS011;8466;52.286;21.124;2023-02-24T04:45:16;49.83;;;39.20;;
16699;SDS011;8466;52.286;21.124;2023-02-24T04:47:47;46.90;;;39.33;;
16699;SDS011;8466;52.286;21.124;2023-02-24T04:50:18;48.17;;;38.97;;
16699;SDS011;8466;52.286;21.124;2023-02-24T04:52:53;45.90;;;37.13;;
16699;SDS011;8466;52.286;21.124;2023-02-24T04:55:23;48.80;;;37.70;;
16699;SDS011;8466;52.286;21.124;2023-02-24T04:57:55;48.47;;;37.90;;
16699;SDS011;8466;52.286;21.124;2023-02-24T05:00:24;47.63;;;39.83;;
16699;SDS011;8466;52.286;21.124;2023-02-24T05:02:59;48.40;;;39.87;;
16699;SDS011;8466;52.286;21.124;2023-02-24T05:05:28;51.47;;;40.50;;
16699;SDS011;8466;52.286;21.124;2023-02-24T05:08:01;50.13;;;38.37;;
16699;SDS011;8466;52.286;21.124;2023-02-24T05:10:34;52.23;;;40.90;;
16699;SDS011;8466;52.286;21.124;2023-02-24T05:13:04;50.17;;;38.50;;
16699;SDS011;8466;52.286;21.124;2023-02-24T05:15:37;52.63;;;41.53;;
16699;SDS011;8466;52.286;21.124;2023-02-24T05:18:08;48.47;;;38.50;;
16699;SDS011;8466;52.286;21.124;2023-02-24T05:20:41;49.77;;;39.83;;
16699;SDS011;8466;52.286;21.124;2023-02-24T05:23:38;55.20;;;41.23;;
16699;SDS011;8466;52.286;21.124;2023-02-24T05:26:10;53.50;;;42.07;;
16699;SDS011;8466;52.286;21.124;2023-02-24T05:28:43;51.80;;;40.70;;
16699;SDS011;8466;52.286;21.124;2023-02-24T05:31:15;49.00;;;38.13;;
16699;SDS011;8466;52.286;21.124;2023-02-24T05:33:47;45.63;;;39.30;;
16699;SDS011;8466;52.286;21.124;2023-02-24T05:36:20;52.97;;;42.40;;
16699;SDS011;8466;52.286;21.124;2023-02-24T05:38:53;51.10;;;42.17;;
16699;SDS011;8466;52.286;21.124;2023-02-24T05:41:25;49.00;;;40.77;;
16699;SDS011;8466;52.286;21.124;2023-02-24T05:43:58;51.15;;;42.03;;
16699;SDS011;8466;52.286;21.124;2023-02-24T05:46:32;51.57;;;42.43;;
16699;SDS011;8466;52.286;21.124;2023-02-24T05:49:04;52.03;;;45.00;;
16699;SDS011;8466;52.286;21.124;2023-02-24T05:51:36;53.20;;;43.50;;
16699;SDS011;8466;52.286;21.124;2023-02-24T05:54:11;51.00;;;41.93;;
16699;SDS011;8466;52.286;21.124;2023-02-24T05:56:40;56.70;;;45.03;;
16699;SDS011;8466;52.286;21.124;2023-02-24T05:59:10;51.27;;;42.30;;
16699;SDS011;8466;52.286;21.124;2023-02-24T06:01:43;51.63;;;42.87;;
16699;SDS011;8466;52.286;21.124;2023-02-24T06:04:12;52.17;;;42.23;;
16699;SDS011;8466;52.286;21.124;2023-02-24T06:06:53;55.00;;;43.10;;
16699;SDS011;8466;52.286;21.124;2023-02-24T06:09:23;55.08;;;49.28;;
16699;SDS011;8466;52.286;21.124;2023-02-24T06:11:52;55.23;;;45.23;;
16699;SDS011;8466;52.286;21.124;2023-02-24T06:14:20;57.50;;;48.23;;
16699;SDS011;8466;52.286;21.124;2023-02-24T06:16:49;57.37;;;48.43;;
16699;SDS011;8466;52.286;21.124;2023-02-24T06:19:18;61.73;;;49.13;;
16699;SDS011;8466;52.286;21.124;2023-02-24T06:21:46;62.57;;;50.53;;
16699;SDS011;8466;52.286;21.124;2023-02-24T06:24:18;67.50;;;52.33;;
16699;SDS011;8466;52.286;21.124;2023-02-24T06:26:49;65.27;;;51.03;;
16699;SDS011;8466;52.286;21.124;2023-02-24T06:29:19;61.17;;;48.27;;
16699;SDS011;8466;52.286;21.124;2023-02-24T06:31:56;60.37;;;48.40;;
16699;SDS011;8466;52.286;21.124;2023-02-24T06:34:25;58.77;;;47.13;;
16699;SDS011;8466;52.286;21.124;2023-02-24T06:36:54;63.73;;;52.00;;
16699;SDS011;8466;52.286;21.124;2023-02-24T06:39:24;65.40;;;52.13;;
16699;SDS011;8466;52.286;21.124;2023-02-24T06:41:54;67.00;;;54.80;;
16699;SDS011;8466;52.286;21.124;2023-02-24T06:44:29;56.50;;;46.57;;
16699;SDS011;8466;52.286;21.124;2023-02-24T06:46:58;68.60;;;52.93;;
16699;SDS011;8466;52.286;21.124;2023-02-24T06:49:27;70.67;;;56.83;;
16699;SDS011;8466;52.286;21.124;2023-02-24T06:51:57;70.37;;;55.27;;
16699;SDS011;8466;52.286;21.124;2023-02-24T06:54:26;65.20;;;50.27;;
16699;SDS011;8466;52.286;21.124;2023-02-24T06:56:57;63.10;;;51.53;;
16699;SDS011;8466;52.286;21.124;2023-02-24T06:59:26;64.63;;;52.60;;
16699;SDS011;8466;52.286;21.124;2023-02-24T07:01:55;69.10;;;55.97;;
16699;SDS011;8466;52.286;21.124;2023-02-24T07:04:25;63.50;;;49.73;;
16699;SDS011;8466;52.286;21.124;2023-02-24T07:06:55;70.80;;;56.40;;
16699;SDS011;8466;52.286;21.124;2023-02-24T07:09:29;76.60;;;58.77;;
16699;SDS011;8466;52.286;21.124;2023-02-24T07:12:00;69.30;;;56.20;;
16699;SDS011;8466;52.286;21.124;2023-02-24T07:14:30;63.07;;;49.00;;
16699;SDS011;8466;52.286;21.124;2023-02-24T07:16:58;59.20;;;47.87;;
16699;SDS011;8466;52.286;21.124;2023-02-24T07:19:28;53.90;;;43.00;;
16699;SDS011;8466;52.286;21.124;2023-02-24T07:21:58;53.83;;;43.23;;
16699;SDS011;8466;52.286;21.124;2023-02-24T07:24:29;56.90;;;45.37;;
16699;SDS011;8466;52.286;21.124;2023-02-24T07:27:04;52.80;;;42.87;;
16699;SDS011;8466;52.286;21.124;2023-02-24T07:29:35;53.50;;;45.17;;
16699;SDS011;8466;52.286;21.124;2023-02-24T07:32:05;51.80;;;43.07;;
16699;SDS011;8466;52.286;21.124;2023-02-24T07:34:35;50.33;;;42.73;;
16699;SDS011;8466;52.286;21.124;2023-02-24T07:37:06;48.63;;;41.70;;
16699;SDS011;8466;52.286;21.124;2023-02-24T07:39:36;52.43;;;42.57;;
16699;SDS011;8466;52.286;21.124;2023-02-24T07:42:08;52.90;;;42.73;;
16699;SDS011;8466;52.286;21.124;2023-02-24T07:44:38;50.53;;;42.33;;
16699;SDS011;8466;52.286;21.124;2023-02-24T07:47:10;48.00;;;38.97;;
16699;SDS011;8466;52.286;21.124;2023-02-24T07:49:39;53.30;;;38.60;;
16699;SDS011;8466;52.286;21.124;2023-02-24T07:52:07;46.37;;;36.93;;
16699;SDS011;8466;52.286;21.124;2023-02-24T07:54:37;43.83;;;35.37;;
16699;SDS011;8466;52.286;21.124;2023-02-24T07:57:06;44.50;;;38.57;;
16699;SDS011;8466;52.286;21.124;2023-02-24T07:59:40;46.90;;;40.20;;
16699;SDS011;8466;52.286;21.124;2023-02-24T08:02:13;42.60;;;35.03;;
16699;SDS011;8466;52.286;21.124;2023-02-24T08:04:42;44.33;;;36.00;;
16699;SDS011;8466;52.286;21.124;2023-02-24T08:07:16;41.80;;;35.47;;
16699;SDS011;8466;52.286;21.124;2023-02-24T08:09:50;40.23;;;35.47;;
16699;SDS011;8466;52.286;21.124;2023-02-24T08:12:51;42.00;;;37.00;;
16699;SDS011;8466;52.286;21.124;2023-02-24T08:15:21;37.77;;;32.97;;
16699;SDS011;8466;52.286;21.124;2023-02-24T08:18:00;40.27;;;35.00;;
16699;SDS011;8466;52.286;21.124;2023-02-24T08:20:30;39.13;;;34.30;;
16699;SDS011;8466;52.286;21.124;2023-02-24T08:23:17;43.13;;;36.63;;
16699;SDS011;8466;52.286;21.124;2023-02-24T08:25:49;38.90;;;33.63;;
16699;SDS011;8466;52.286;21.124;2023-02-24T08:28:20;40.43;;;33.17;;
16699;SDS011;8466;52.286;21.124;2023-02-24T08:30:52;46.80;;;40.53;;
16699;SDS011;8466;52.286;21.124;2023-02-24T08:33:21;47.60;;;41.47;;
16699;SDS011;8466;52.286;21.124;2023-02-24T08:35:54;39.90;;;34.87;;
16699;SDS011;8466;52.286;21.124;2023-02-24T08:38:28;41.70;;;35.20;;
16699;SDS011;8466;52.286;21.124;2023-02-24T08:41:11;41.70;;;36.13;;
16699;SDS011;8466;52.286;21.124;2023-02-24T08:43:45;38.20;;;33.83;;
16699;SDS011;8466;52.286;21.124;2023-02-24T08:46:16;37.90;;;33.73;;
16699;SDS011;8466;52.286;21.124;2023-02-24T08:48:53;41.77;;;37.13;;
16699;SDS011;8466;52.286;21.124;2023-02-24T08:51:23;43.07;;;38.37;;
16699;SDS011;8466;52.286;21.124;2023-02-24T08:53:55;47.53;;;42.17;;
16699;SDS011;8466;52.286;21.124;2023-02-24T08:56:26;47.50;;;41.37;;
16699;SDS011;8466;52.286;21.124;2023-02-24T08:58:58;49.03;;;43.67;;
16699;SDS011;8466;52.286;21.124;2023-02-24T09:01:32;50.17;;;44.80;;
16699;SDS011;8466;52.286;21.124;2023-02-24T09:04:03;47.17;;;42.27;;
16699;SDS011;8466;52.286;21.124;2023-02-24T09:06:35;46.00;;;41.03;;
16699;SDS011;8466;52.286;21.124;2023-02-24T09:09:06;46.57;;;41.53;;
16699;SDS011;8466;52.286;21.124;2023-02-24T09:11:47;42.77;;;38.17;;
16699;SDS011;8466;52.286;21.124;2023-02-24T09:14:24;43.60;;;38.60;;
16699;SDS011;8466;52.286;21.124;2023-02-24T09:16:55;48.40;;;43.20;;
16699;SDS011;8466;52.286;21.124;2023-02-24T09:19:37;44.97;;;40.20;;
16699;SDS011;8466;52.286;21.124;2023-02-24T09:22:28;47.20;;;40.87;;
16699;SDS011;8466;52.286;21.124;2023-02-24T09:24:59;41.20;;;36.83;;
16699;SDS011;8466;52.286;21.124;2023-02-24T09:27:44;38.77;;;34.67;;
16699;SDS011;8466;52.286;21.124;2023-02-24T09:30:23;39.03;;;33.63;;
16699;SDS011;8466;52.286;21.124;2023-02-24T09:33:10;34.07;;;30.47;;
16699;SDS011;8466;52.286;21.124;2023-02-24T09:35:47;36.27;;;32.07;;
16699;SDS011;8466;52.286;21.124;2023-02-24T09:38:19;39.73;;;35.50;;
16699;SDS011;8466;52.286;21.124;2023-02-24T09:41:16;41.93;;;36.53;;
16699;SDS011;8466;52.286;21.124;2023-02-24T09:44:02;38.43;;;31.77;;
16699;SDS011;8466;52.286;21.124;2023-02-24T09:46:45;39.50;;;33.83;;
16699;SDS011;8466;52.286;21.124;2023-02-24T09:49:21;39.10;;;33.17;;
16699;SDS011;8466;52.286;21.124;2023-02-24T09:51:53;35.50;;;31.70;;
16699;SDS011;8466;52.286;21.124;2023-02-24T09:54:35;36.60;;;32.63;;
16699;SDS011;8466;52.286;21.124;2023-02-24T09:57:05;37.27;;;30.60;;
16699;SDS011;8466;52.286;21.124;2023-02-24T09:59:45;34.17;;;29.50;;
16699;SDS011;8466;52.286;21.124;2023-02-24T10:02:38;36.27;;;31.67;;
16699;SDS011;8466;52.286;21.124;2023-02-24T10:05:26;34.43;;;30.83;;
16699;SDS011;8466;52.286;21.124;2023-02-24T10:08:06;35.27;;;31.33;;
16699;SDS011;8466;52.286;21.124;2023-02-24T10:10:43;37.47;;;33.60;;
16699;SDS011;8466;52.286;21.124;2023-02-24T10:13:34;36.57;;;30.67;;
16699;SDS011;8466;52.286;21.124;2023-02-24T10:16:05;38.70;;;34.30;;
16699;SDS011;8466;52.286;21.124;2023-02-24T10:18:40;38.90;;;35.00;;
16699;SDS011;8466;52.286;21.124;2023-02-24T10:21:17;37.10;;;33.10;;
16699;SDS011;8466;52.286;21.124;2023-02-24T10:24:07;35.73;;;31.77;;
16699;SDS011;8466;52.286;21.124;2023-02-24T10:26:46;36.20;;;32.27;;
16699;SDS011;8466;52.286;21.124;2023-02-24T10:29:37;35.50;;;31.73;;
16699;SDS011;8466;52.286;21.124;2023-02-24T10:32:22;32.73;;;29.37;;
16699;SDS011;8466;52.286;21.124;2023-02-24T10:35:01;31.90;;;28.60;;
16699;SDS011;8466;52.286;21.124;2023-02-24T10:37:31;36.83;;;32.93;;
16699;SDS011;8466;52.286;21.124;2023-02-24T10:40:01;37.20;;;33.50;;
16699;SDS011;8466;52.286;21.124;2023-02-24T10:42:37;33.63;;;30.53;;
16699;SDS011;8466;52.286;21.124;2023-02-24T10:45:12;34.97;;;31.30;;
16699;SDS011;8466;52.286;21.124;2023-02-24T10:47:50;31.17;;;27.97;;
16699;SDS011;8466;52.286;21.124;2023-02-24T10:50:26;33.30;;;30.00;;
16699;SDS011;8466;52.286;21.124;2023-02-24T10:53:02;27.30;;;24.57;;
16699;SDS011;8466;52.286;21.124;2023-02-24T10:55:53;26.70;;;24.00;;
16699;SDS011;8466;52.286;21.124;2023-02-24T10:58:41;25.03;;;22.53;;
16699;SDS011;8466;52.286;21.124;2023-02-24T11:01:26;29.53;;;26.73;;
16699;SDS011;8466;52.286;21.124;2023-02-24T11:04:11;31.07;;;28.00;;
16699;SDS011;8466;52.286;21.124;2023-02-24T11:07:03;31.93;;;28.60;;
16699;SDS011;8466;52.286;21.124;2023-02-24T11:09:37;30.73;;;27.73;;
16699;SDS011;8466;52.286;21.124;2023-02-24T11:12:19;29.13;;;26.23;;
16699;SDS011;8466;52.286;21.124;2023-02-24T11:15:14;29.30;;;26.33;;
16699;SDS011;8466;52.286;21.124;2023-02-24T11:18:04;30.67;;;27.50;;
16699;SDS011;8466;52.286;21.124;2023-02-24T11:20:36;33.97;;;30.33;;
16699;SDS011;8466;52.286;21.124;2023-02-24T11:23:18;38.57;;;34.87;;
16699;SDS011;8466;52.286;21.124;2023-02-24T11:25:50;35.60;;;31.83;;
16699;SDS011;8466;52.286;21.124;2023-02-24T11:31:22;27.50;;;24.73;;
16699;SDS011;8466;52.286;21.124;2023-02-24T11:34:03;23.23;;;21.03;;
16699;SDS011;8466;52.286;21.124;2023-02-24T11:36:39;27.97;;;25.27;;
16699;SDS011;8466;52.286;21.124;2023-02-24T11:39:32;33.30;;;29.83;;
16699;SDS011;8466;52.286;21.124;2023-02-24T11:42:20;22.30;;;20.07;;
16699;SDS011;8466;52.286;21.124;2023-02-24T11:44:54;24.33;;;22.00;;
16699;SDS011;8466;52.286;21.124;2023-02-24T11:47:28;20.90;;;19.20;;
16699;SDS011;8466;52.286;21.124;2023-02-24T11:50:05;22.30;;;20.40;;
16699;SDS011;8466;52.286;21.124;2023-02-24T11:52:55;21.23;;;19.00;;
16699;SDS011;8466;52.286;21.124;2023-02-24T11:55:33;25.83;;;23.37;;
16699;SDS011;8466;52.286;21.124;2023-02-24T11:58:06;22.67;;;20.63;;
16699;SDS011;8466;52.286;21.124;2023-02-24T12:00:48;26.87;;;24.20;;
16699;SDS011;8466;52.286;21.124;2023-02-24T12:03:22;33.20;;;26.40;;
16699;SDS011;8466;52.286;21.124;2023-02-24T12:06:01;25.43;;;22.07;;
16699;SDS011;8466;52.286;21.124;2023-02-24T12:08:39;48.33;;;33.73;;
16699;SDS011;8466;52.286;21.124;2023-02-24T12:11:13;44.90;;;32.87;;
16699;SDS011;8466;52.286;21.124;2023-02-24T12:13:49;56.83;;;38.23;;
16699;SDS011;8466;52.286;21.124;2023-02-24T12:16:24;109.77;;;66.37;;
16699;SDS011;8466;52.286;21.124;2023-02-24T12:19:01;34.03;;;28.27;;
16699;SDS011;8466;52.286;21.124;2023-02-24T12:21:44;25.90;;;22.57;;
16699;SDS011;8466;52.286;21.124;2023-02-24T12:24:19;24.23;;;21.60;;
16699;SDS011;8466;52.286;21.124;2023-02-24T12:26:52;26.87;;;24.07;;
16699;SDS011;8466;52.286;21.124;2023-02-24T12:32:38;29.97;;;27.07;;
16699;SDS011;8466;52.286;21.124;2023-02-24T12:35:24;30.05;;;27.15;;
16699;SDS011;8466;52.286;21.124;2023-02-24T12:38:02;36.57;;;32.77;;
16699;SDS011;8466;52.286;21.124;2023-02-24T12:40:46;35.60;;;32.10;;
16699;SDS011;8466;52.286;21.124;2023-02-24T12:43:26;37.23;;;34.03;;
16699;SDS011;8466;52.286;21.124;2023-02-24T12:46:01;32.60;;;29.87;;
16699;SDS011;8466;52.286;21.124;2023-02-24T12:48:48;31.37;;;28.33;;
16699;SDS011;8466;52.286;21.124;2023-02-24T12:51:39;31.47;;;28.47;;
16699;SDS011;8466;52.286;21.124;2023-02-24T12:54:17;27.77;;;24.93;;
16699;SDS011;8466;52.286;21.124;2023-02-24T12:56:57;31.20;;;28.20;;
16699;SDS011;8466;52.286;21.124;2023-02-24T12:59:36;25.90;;;23.57;;
16699;SDS011;8466;52.286;21.124;2023-02-24T13:02:09;37.63;;;34.27;;
16699;SDS011;8466;52.286;21.124;2023-02-24T13:04:49;36.20;;;32.80;;
16699;SDS011;8466;52.286;21.124;2023-02-24T13:07:33;29.93;;;27.20;;
16699;SDS011;8466;52.286;21.124;2023-02-24T13:10:17;29.67;;;27.13;;
16699;SDS011;8466;52.286;21.124;2023-02-24T13:13:00;26.53;;;24.33;;
16699;SDS011;8466;52.286;21.124;2023-02-24T13:15:47;24.00;;;21.90;;
16699;SDS011;8466;52.286;21.124;2023-02-24T13:18:24;26.70;;;24.40;;
16699;SDS011;8466;52.286;21.124;2023-02-24T13:21:05;24.73;;;22.63;;
16699;SDS011;8466;52.286;21.124;2023-02-24T13:23:39;22.73;;;20.73;;
16699;SDS011;8466;52.286;21.124;2023-02-24T13:26:09;23.30;;;21.13;;
16699;SDS011;8466;52.286;21.124;2023-02-24T13:28:37;25.67;;;23.50;;
16699;SDS011;8466;52.286;21.124;2023-02-24T13:31:08;23.70;;;21.57;;
16699;SDS011;8466;52.286;21.124;2023-02-24T13:33:42;21.53;;;19.70;;
16699;SDS011;8466;52.286;21.124;2023-02-24T13:36:13;21.70;;;19.87;;
16699;SDS011;8466;52.286;21.124;2023-02-24T13:38:46;20.55;;;18.65;;
16699;SDS011;8466;52.286;21.124;2023-02-24T13:41:33;27.30;;;25.20;;
16699;SDS011;8466;52.286;21.124;2023-02-24T13:44:20;21.07;;;19.10;;
16699;SDS011;8466;52.286;21.124;2023-02-24T13:46:56;19.30;;;17.33;;
16699;SDS011;8466;52.286;21.124;2023-02-24T13:49:51;27.90;;;20.73;;
16699;SDS011;8466;52.286;21.124;2023-02-24T13:52:31;30.87;;;22.10;;
16699;SDS011;8466;52.286;21.124;2023-02-24T13:55:14;22.07;;;19.20;;
16699;SDS011;8466;52.286;21.124;2023-02-24T14:01:03;18.13;;;16.23;;
16699;SDS011;8466;52.286;21.124;2023-02-24T14:03:36;20.43;;;17.10;;
16699;SDS011;8466;52.286;21.124;2023-02-24T14:06:12;21.53;;;18.13;;
16699;SDS011;8466;52.286;21.124;2023-02-24T14:08:46;19.53;;;17.03;;
16699;SDS011;8466;52.286;21.124;2023-02-24T14:11:22;19.10;;;17.07;;
16699;SDS011;8466;52.286;21.124;2023-02-24T14:13:54;19.63;;;17.57;;
16699;SDS011;8466;52.286;21.124;2023-02-24T14:16:26;19.50;;;17.07;;
16699;SDS011;8466;52.286;21.124;2023-02-24T14:18:59;19.07;;;17.13;;
16699;SDS011;8466;52.286;21.124;2023-02-24T14:21:29;20.83;;;18.77;;
16699;SDS011;8466;52.286;21.124;2023-02-24T14:23:59;24.13;;;21.60;;
16699;SDS011;8466;52.286;21.124;2023-02-24T14:26:32;22.07;;;19.87;;
16699;SDS011;8466;52.286;21.124;2023-02-24T14:29:05;22.53;;;20.27;;
16699;SDS011;8466;52.286;21.124;2023-02-24T14:31:35;26.50;;;22.87;;
16699;SDS011;8466;52.286;21.124;2023-02-24T14:34:06;23.33;;;20.90;;
16699;SDS011;8466;52.286;21.124;2023-02-24T14:36:45;21.77;;;19.60;;
16699;SDS011;8466;52.286;21.124;2023-02-24T14:39:15;22.47;;;20.37;;
16699;SDS011;8466;52.286;21.124;2023-02-24T14:41:46;17.83;;;16.13;;
16699;SDS011;8466;52.286;21.124;2023-02-24T14:44:20;25.83;;;23.13;;
16699;SDS011;8466;52.286;21.124;2023-02-24T14:46:51;26.77;;;23.97;;
16699;SDS011;8466;52.286;21.124;2023-02-24T14:49:23;28.30;;;25.63;;
16699;SDS011;8466;52.286;21.124;2023-02-24T14:51:54;22.03;;;19.87;;
16699;SDS011;8466;52.286;21.124;2023-02-24T14:54:34;19.93;;;16.93;;
16699;SDS011;8466;52.286;21.124;2023-02-24T14:57:10;25.43;;;22.90;;
16699;SDS011;8466;52.286;21.124;2023-02-24T14:59:43;22.60;;;20.27;;
16699;SDS011;8466;52.286;21.124;2023-02-24T15:02:16;21.70;;;18.80;;
16699;SDS011;8466;52.286;21.124;2023-02-24T15:04:54;22.93;;;20.30;;
16699;SDS011;8466;52.286;21.124;2023-02-24T15:07:24;21.53;;;19.47;;
16699;SDS011;8466;52.286;21.124;2023-02-24T15:09:56;21.80;;;19.63;;
16699;SDS011;8466;52.286;21.124;2023-02-24T15:12:26;19.80;;;17.80;;
16699;SDS011;8466;52.286;21.124;2023-02-24T15:14:59;21.57;;;19.27;;
16699;SDS011;8466;52.286;21.124;2023-02-24T15:17:36;21.47;;;19.43;;
16699;SDS011;8466;52.286;21.124;2023-02-24T15:23:00;21.50;;;19.30;;
16699;SDS011;8466;52.286;21.124;2023-02-24T15:25:30;23.03;;;20.63;;